Newton Junction, NH (03859)

12:38 PM EDT on July 31, 2015 (GMT -0400)
Newton Junction - West Main Street | | Change Station
CLOSE
Current Station
Personal Weather Station
Location: Newton, NH
Elevation: 138 ft
Nearby Weather Stations

Elev 138 ft 42.87 °N, 71.07 °W | Updated 4 minutes ago

Clear
Clear
89.1 °F
Feels Like 89 °F
N
1.6
Wind Variable Wind from SW
Gusts 4.5 mph

Today
High -- | Low -- °F
--% Chance of Precip.
Yesterday
High -- | Low -- °F
Precip. -- in
5:34 AM 8:06 PM
Full, 100% visible
Pressure 29.79 in
Visibility 10.0 miles
Clouds Few 5000 ft
Heat Index 89 °F
Dew Point 61 °F
Humidity 39%
Rainfall 0.02 in
Snow Depth Not available.
UV 10 out of 12
Pollen 5.90 out of 12
Air Quality Not available.
Flu Activity Not available.
METAR KLWM 311554Z 25015G23KT 220V290 10SM FEW050 29/16 A2979 RMK AO2 SLP086 T02890161

More Conditions Fewer Conditions

Pressure 29.79 in
Visibility 10.0 miles
Clouds Few 5000 ft
Heat Index 89 °F
Dew Point 61 °F
Humidity 39%
Rainfall 0.02 in
Snow Depth Not available.
UV 10 out of 12
Pollen 5.90 out of 12
Air Quality Not available.
Flu Activity Not available.
METAR KLWM 311554Z 25015G23KT 220V290 10SM FEW050 29/16 A2979 RMK AO2 SLP086 T02890161

More Conditions Fewer Conditions

10-Day Weather Forecast

×

Almanac

Astronomy

Jul. 31, 2015 Rise Set
Actual Time
Civil Twilight
Nautical Twilight
Astronomical Twilight
Moon
Length of Visible Light
Length of Day
Tomorrow will be .
, % of the Moon is Illuminated

Today's Extremes

State Highs State Lows

Community

WunderPhotos

Upload Photos

1,842,691 photos uploaded!

WunderBlogs® & News

Nearby

Air Quality

  Air Quality AQ Index Pollutant
Not available.

Snow Depth

Station Depth Elevation

Earthquake Activity

City Distance Mag. Time & Date
Minimum magnitude displayed is 2.5.

Coastal Water Temperatures

Place Temperature

Stations

Nearby Weather Stations

Station Location Temp. Windchill Dew Point Humidity Wind Precip. Elev Updated Type